createdAt,value
2018-12-13T00:01:24.124Z,4.65
2018-12-13T00:03:52.731Z,4.75
2018-12-13T00:06:20.454Z,5.55
2018-12-13T00:08:48.730Z,4.40
2018-12-13T00:11:16.542Z,4.30
2018-12-13T00:13:44.173Z,5.87
2018-12-13T00:16:11.982Z,5.83
2018-12-13T00:18:39.699Z,6.45
2018-12-13T00:21:07.555Z,5.70
2018-12-13T00:23:35.202Z,6.40
2018-12-13T00:26:02.820Z,5.65
2018-12-13T00:28:30.568Z,5.40
2018-12-13T00:30:58.274Z,9.40
2018-12-13T00:33:25.930Z,5.70
2018-12-13T00:35:53.570Z,4.72
2018-12-13T00:38:21.499Z,5.37
2018-12-13T00:40:49.095Z,4.17
2018-12-13T00:43:16.980Z,5.42
2018-12-13T00:45:44.663Z,5.37
2018-12-13T00:48:12.411Z,5.42
2018-12-13T00:50:40.103Z,5.33
2018-12-13T00:53:08.288Z,5.58
2018-12-13T00:55:35.962Z,6.42
2018-12-13T00:58:03.656Z,4.80
2018-12-13T01:00:31.445Z,5.30
2018-12-13T01:02:59.037Z,6.25
2018-12-13T01:05:26.699Z,5.70
2018-12-13T01:07:54.554Z,5.55
2018-12-13T01:10:22.241Z,4.75
2018-12-13T01:12:49.982Z,5.83
2018-12-13T01:15:17.734Z,4.72
2018-12-13T01:17:45.345Z,6.95
2018-12-13T01:20:13.089Z,4.55
2018-12-13T01:22:41.405Z,5.08
2018-12-13T01:25:08.975Z,6.72
2018-12-13T01:27:36.752Z,6.28
2018-12-13T01:30:04.706Z,5.62
2018-12-13T01:32:32.759Z,7.33
2018-12-13T01:35:00.465Z,7.87
2018-12-13T01:37:28.262Z,5.87
2018-12-13T01:39:55.914Z,4.62
2018-12-13T01:42:23.604Z,6.00
2018-12-13T01:44:52.061Z,7.10
2018-12-13T01:47:20.368Z,7.40
2018-12-13T01:49:48.316Z,8.38
2018-12-13T01:52:17.390Z,6.70
2018-12-13T01:54:45.113Z,5.80
2018-12-13T01:57:12.836Z,6.10
2018-12-13T01:59:41.053Z,4.80
2018-12-13T02:02:09.296Z,5.65
2018-12-13T02:04:37.236Z,6.60
2018-12-13T02:07:05.011Z,8.43
2018-12-13T02:09:32.718Z,6.33
2018-12-13T02:12:00.982Z,6.58
2018-12-13T02:14:28.777Z,5.70
2018-12-13T02:16:56.518Z,6.22
2018-12-13T02:19:24.786Z,8.05
2018-12-13T02:21:52.947Z,8.58
2018-12-13T02:24:20.619Z,9.05
2018-12-13T02:26:48.259Z,7.33
2018-12-13T02:29:15.891Z,9.23
2018-12-13T02:31:43.524Z,6.10
2018-12-13T02:34:11.525Z,6.35
2018-12-13T02:36:40.020Z,5.60
2018-12-13T02:39:07.684Z,6.85
2018-12-13T02:41:35.378Z,5.33
2018-12-13T02:44:03.500Z,8.73
2018-12-13T02:46:31.180Z,9.40
2018-12-13T02:49:08.551Z,6.97
2018-12-13T02:51:36.963Z,6.95
2018-12-13T02:54:04.753Z,5.92
2018-12-13T02:56:32.596Z,7.10
2018-12-13T02:59:00.196Z,11.68
2018-12-13T03:01:28.527Z,5.97
2018-12-13T03:03:57.537Z,8.93
2018-12-13T03:06:25.199Z,7.95
2018-12-13T03:08:52.822Z,9.18
2018-12-13T03:11:21.098Z,8.28
2018-12-13T03:13:48.802Z,7.45
2018-12-13T03:16:16.421Z,10.15
2018-12-13T03:18:44.894Z,8.65
2018-12-13T03:21:12.594Z,6.95
2018-12-13T03:23:40.317Z,7.40
2018-12-13T03:26:14.803Z,8.10
2018-12-13T03:28:42.671Z,6.55
2018-12-13T03:31:10.504Z,8.90
2018-12-13T03:33:38.247Z,8.35
2018-12-13T03:36:06.532Z,7.10
2018-12-13T03:38:34.780Z,7.17
2018-12-13T03:41:02.566Z,9.75
2018-12-13T03:43:30.209Z,6.97
2018-12-13T03:45:58.288Z,7.22
2018-12-13T03:48:26.562Z,8.15
2018-12-13T03:50:54.366Z,7.20
2018-12-13T03:53:22.104Z,6.70
2018-12-13T03:55:49.778Z,8.85
2018-12-13T03:58:17.543Z,8.75
2018-12-13T04:00:45.586Z,7.25
2018-12-13T04:03:13.365Z,6.45
2018-12-13T04:05:41.924Z,7.87
2018-12-13T04:08:10.081Z,5.65
2018-12-13T04:10:37.711Z,6.05
2018-12-13T04:13:05.367Z,8.43
2018-12-13T04:15:33.495Z,6.70
2018-12-13T04:18:01.475Z,7.78
2018-12-13T04:20:29.290Z,5.75
2018-12-13T04:22:57.187Z,7.75
2018-12-13T04:25:25.483Z,7.90
2018-12-13T04:27:53.846Z,8.30
2018-12-13T04:30:21.631Z,6.00
2018-12-13T04:32:49.903Z,3.25
2018-12-13T04:35:17.757Z,7.62
2018-12-13T04:37:45.481Z,7.65
2018-12-13T04:40:13.483Z,8.23
2018-12-13T04:42:41.109Z,8.00
2018-12-13T04:45:08.817Z,7.22
2018-12-13T04:47:36.789Z,9.33
2018-12-13T04:50:05.801Z,9.03
2018-12-13T04:52:33.549Z,8.45
2018-12-13T04:55:01.207Z,8.08
2018-12-13T04:57:28.906Z,6.90
2018-12-13T04:59:57.933Z,9.23
2018-12-13T05:02:25.695Z,7.12
2018-12-13T05:04:53.325Z,8.10
2018-12-13T05:07:20.950Z,10.23
2018-12-13T05:09:48.646Z,8.75
2018-12-13T05:12:16.486Z,8.35
2018-12-13T05:14:46.132Z,6.45
2018-12-13T05:17:13.773Z,7.28
2018-12-13T05:19:41.458Z,5.62
2018-12-13T05:22:09.178Z,7.15
2018-12-13T05:24:37.219Z,8.10
2018-12-13T05:27:05.495Z,7.95
2018-12-13T05:29:33.849Z,8.58
2018-12-13T05:32:01.614Z,5.20
2018-12-13T05:34:29.991Z,6.47
2018-12-13T05:36:57.707Z,7.58
2018-12-13T05:39:25.421Z,8.18
2018-12-13T05:41:53.513Z,8.20
2018-12-13T05:44:27.174Z,14.33
2018-12-13T05:46:55.922Z,7.62
2018-12-13T05:49:23.618Z,7.67
2018-12-13T05:51:51.338Z,10.20
2018-12-13T05:54:19.096Z,11.25
2018-12-13T05:56:47.528Z,6.55
2018-12-13T05:59:15.218Z,3.70
2018-12-13T06:01:43.524Z,9.08
2018-12-13T06:04:11.768Z,8.50
2018-12-13T06:06:39.806Z,12.60
2018-12-13T06:09:07.618Z,7.70
2018-12-13T06:11:35.630Z,8.50
2018-12-13T06:14:03.469Z,11.83
2018-12-13T06:16:31.483Z,10.13
2018-12-13T06:18:59.672Z,11.80
2018-12-13T06:21:27.299Z,9.25
2018-12-13T06:23:55.337Z,13.78
2018-12-13T06:26:23.842Z,12.55
2018-12-13T06:28:52.781Z,6.85
2018-12-13T06:31:20.720Z,11.63
2018-12-13T06:33:49.021Z,9.73
2018-12-13T06:36:17.311Z,12.23
2018-12-13T06:38:45.168Z,11.35
2018-12-13T06:41:13.944Z,12.25
2018-12-13T06:43:41.717Z,13.03
2018-12-13T06:46:09.403Z,11.80
2018-12-13T06:48:37.327Z,9.30
2018-12-13T06:51:05.214Z,12.58
2018-12-13T06:53:33.131Z,10.15
2018-12-13T06:56:03.267Z,13.83
2018-12-13T06:58:31.019Z,9.70
2018-12-13T07:00:58.811Z,11.08
2018-12-13T07:03:26.783Z,8.15
2018-12-13T07:05:54.650Z,13.95
2018-12-13T07:08:22.379Z,13.13
2018-12-13T07:10:50.345Z,13.80
2018-12-13T07:13:18.230Z,16.52
2018-12-13T07:15:45.967Z,12.18
2018-12-13T07:18:14.330Z,10.70
2018-12-13T07:20:42.166Z,12.78
2018-12-13T07:23:10.547Z,11.75
2018-12-13T07:25:38.151Z,9.65
2018-12-13T07:28:06.554Z,9.03
2018-12-13T07:30:34.840Z,11.40
2018-12-13T07:33:03.837Z,8.68
2018-12-13T07:35:32.396Z,11.35
2018-12-13T07:38:00.490Z,12.33
2018-12-13T07:40:28.389Z,14.98
2018-12-13T07:42:56.447Z,11.78
2018-12-13T07:45:24.422Z,13.68
2018-12-13T07:47:52.604Z,11.22
2018-12-13T07:50:20.962Z,11.10
2018-12-13T07:52:49.064Z,13.78
2018-12-13T07:55:16.756Z,11.63
2018-12-13T07:57:44.532Z,10.75
2018-12-13T08:00:12.284Z,15.85
2018-12-13T08:02:40.724Z,15.72
2018-12-13T08:05:09.037Z,13.38
2018-12-13T08:07:37.052Z,13.50
2018-12-13T08:10:05.580Z,10.00
2018-12-13T08:12:33.505Z,14.15
2018-12-13T08:15:01.877Z,11.03
2018-12-13T08:17:34.006Z,9.28
2018-12-13T08:20:03.409Z,8.85
2018-12-13T08:22:32.040Z,11.70
2018-12-13T08:25:00.678Z,14.10
2018-12-13T08:27:28.757Z,14.20
2018-12-13T08:29:57.497Z,12.35
2018-12-13T08:32:25.390Z,15.98
2018-12-13T08:34:54.244Z,14.58
2018-12-13T08:37:23.284Z,14.73
2018-12-13T08:39:51.795Z,12.07
2018-12-13T08:42:19.746Z,9.98
2018-12-13T08:44:48.015Z,13.18
2018-12-13T08:47:16.482Z,13.18
2018-12-13T08:49:44.930Z,14.03
2018-12-13T08:52:13.076Z,13.08
2018-12-13T08:54:41.252Z,13.10
2018-12-13T08:57:09.029Z,14.38
2018-12-13T08:59:38.720Z,16.45
2018-12-13T09:02:06.714Z,14.35
2018-12-13T09:04:35.474Z,9.00
2018-12-13T09:07:03.977Z,17.15
2018-12-13T09:09:32.096Z,18.32
2018-12-13T09:12:00.030Z,17.55
2018-12-13T09:14:27.939Z,15.20
2018-12-13T09:16:55.728Z,6.53
2018-12-13T09:19:23.906Z,12.00
2018-12-13T09:21:51.863Z,11.68
2018-12-13T09:24:19.758Z,19.15
2018-12-13T09:26:47.561Z,13.75
2018-12-13T09:29:15.417Z,8.10
2018-12-13T09:31:43.263Z,13.85
2018-12-13T09:34:11.256Z,11.68
2018-12-13T09:36:38.989Z,8.60
2018-12-13T09:39:07.333Z,15.90
2018-12-13T09:41:35.242Z,12.28
2018-12-13T09:44:03.925Z,14.90
2018-12-13T09:46:32.076Z,13.05
2018-12-13T09:48:59.926Z,10.78
2018-12-13T09:51:27.883Z,16.02
2018-12-13T09:53:55.787Z,7.50
2018-12-13T09:56:23.575Z,13.98
2018-12-13T09:58:51.594Z,11.60
2018-12-13T10:01:19.499Z,6.50
2018-12-13T10:03:48.182Z,14.78
2018-12-13T10:06:16.331Z,15.13
2018-12-13T10:08:46.404Z,15.25
2018-12-13T10:11:14.019Z,12.33
2018-12-13T10:13:41.859Z,9.30
2018-12-13T10:16:10.062Z,15.23
2018-12-13T10:18:37.865Z,14.15
2018-12-13T10:21:05.624Z,17.60
2018-12-13T10:23:33.332Z,10.88
2018-12-13T10:26:01.342Z,14.95
2018-12-13T10:28:29.137Z,16.23
2018-12-13T10:30:56.929Z,14.85
2018-12-13T10:33:24.677Z,14.10
2018-12-13T10:35:52.882Z,14.87
2018-12-13T10:38:21.033Z,11.15
2018-12-13T10:40:48.982Z,11.75
2018-12-13T10:43:16.736Z,16.97
2018-12-13T10:45:45.557Z,14.33
2018-12-13T10:48:13.251Z,14.07
2018-12-13T10:50:41.228Z,14.60
2018-12-13T10:53:09.091Z,13.40
2018-12-13T10:55:37.069Z,13.43
2018-12-13T10:58:04.932Z,17.40
2018-12-13T11:00:36.285Z,15.85
2018-12-13T11:03:21.355Z,14.83
2018-12-13T11:05:49.430Z,14.98
2018-12-13T11:08:17.330Z,13.55
2018-12-13T11:10:45.161Z,14.45
2018-12-13T11:13:13.300Z,12.68
2018-12-13T11:15:41.083Z,12.45
2018-12-13T11:18:08.841Z,11.35
2018-12-13T11:20:36.604Z,13.75
2018-12-13T11:23:04.365Z,15.08
2018-12-13T11:25:32.472Z,16.65
2018-12-13T11:29:15.758Z,15.75
2018-12-13T11:31:44.539Z,15.85
2018-12-13T11:34:12.317Z,14.13
2018-12-13T11:36:40.097Z,14.90
2018-12-13T11:39:07.851Z,14.60
2018-12-13T11:41:35.691Z,12.37
2018-12-13T11:44:06.538Z,15.98
2018-12-13T11:46:34.268Z,13.40
2018-12-13T11:49:02.080Z,14.40
2018-12-13T11:51:30.083Z,18.12
2018-12-13T11:53:58.071Z,11.68
2018-12-13T11:56:26.274Z,15.25
2018-12-13T11:58:54.049Z,12.30
2018-12-13T12:01:23.131Z,12.70
2018-12-13T12:03:50.874Z,9.58
2018-12-13T12:06:18.835Z,16.55
2018-12-13T12:08:46.657Z,14.40
2018-12-13T12:11:14.964Z,16.93
2018-12-13T12:13:43.611Z,11.38
2018-12-13T12:16:11.580Z,10.55
2018-12-13T12:18:39.390Z,14.30
2018-12-13T12:21:07.154Z,16.50
2018-12-13T12:23:35.198Z,11.70
2018-12-13T12:26:03.200Z,14.00
2018-12-13T12:28:31.177Z,13.00
2018-12-13T12:30:59.358Z,14.78
2018-12-13T12:33:27.314Z,12.40
2018-12-13T12:35:55.337Z,12.45
2018-12-13T12:38:23.304Z,13.00
2018-12-13T12:40:51.015Z,14.28
2018-12-13T12:43:19.558Z,14.90
2018-12-13T12:45:48.486Z,15.55
2018-12-13T12:48:16.361Z,17.05
2018-12-13T12:50:45.271Z,14.07
2018-12-13T12:53:13.190Z,16.80
2018-12-13T12:55:41.186Z,13.18
2018-12-13T12:58:09.723Z,12.88
2018-12-13T13:00:38.355Z,15.18
2018-12-13T13:03:06.422Z,11.43
2018-12-13T13:05:35.104Z,15.13
2018-12-13T13:08:03.142Z,16.27
2018-12-13T13:10:31.916Z,17.27
2018-12-13T13:12:59.623Z,13.38
2018-12-13T13:15:27.355Z,6.78
2018-12-13T13:17:55.371Z,12.95
2018-12-13T13:20:23.531Z,13.72
2018-12-13T13:22:51.458Z,15.38
2018-12-13T13:25:19.915Z,13.30
2018-12-13T13:27:47.757Z,15.28
2018-12-13T13:30:19.491Z,13.98
2018-12-13T13:32:47.268Z,13.72
2018-12-13T13:35:15.124Z,12.37
2018-12-13T13:37:43.087Z,16.48
2018-12-13T13:40:10.884Z,17.55
2018-12-13T13:42:42.777Z,14.00
2018-12-13T13:45:11.298Z,10.98
2018-12-13T13:47:39.793Z,11.30
2018-12-13T13:50:07.839Z,12.60
2018-12-13T13:52:36.646Z,11.90
2018-12-13T13:55:05.120Z,16.57
2018-12-13T13:57:33.001Z,19.00
2018-12-13T14:00:00.839Z,12.45
2018-12-13T14:02:29.426Z,13.00
2018-12-13T14:04:57.217Z,13.03
2018-12-13T14:07:24.875Z,13.80
2018-12-13T14:09:53.261Z,13.38
2018-12-13T14:12:21.098Z,12.37
2018-12-13T14:14:49.468Z,11.22
2018-12-13T14:17:17.890Z,15.63
2018-12-13T14:19:46.665Z,12.88
2018-12-13T14:22:14.428Z,14.63
2018-12-13T14:24:42.467Z,14.13
2018-12-13T14:27:10.678Z,4.80
2018-12-13T14:29:38.397Z,12.98
2018-12-13T14:32:06.138Z,13.88
2018-12-13T14:34:34.504Z,11.85
2018-12-13T14:37:02.868Z,12.53
2018-12-13T14:39:30.674Z,12.65
2018-12-13T14:41:58.444Z,15.75
2018-12-13T14:44:26.839Z,13.78
2018-12-13T14:46:54.606Z,11.80
2018-12-13T14:49:22.770Z,11.30
2018-12-13T14:51:51.431Z,13.30
2018-12-13T14:54:19.482Z,13.60
2018-12-13T14:56:47.882Z,13.72
2018-12-13T14:59:16.103Z,18.85
2018-12-13T15:01:43.899Z,14.25
2018-12-13T15:04:11.711Z,13.30
2018-12-13T15:06:39.538Z,14.23
2018-12-13T15:09:07.917Z,13.68
2018-12-13T15:11:36.657Z,11.80
2018-12-13T15:14:05.667Z,8.83
2018-12-13T15:16:34.155Z,12.28
2018-12-13T15:19:06.054Z,14.18
2018-12-13T15:21:33.907Z,11.22
2018-12-13T15:24:01.917Z,10.43
2018-12-13T15:26:30.376Z,13.48
2018-12-13T15:28:58.185Z,12.35
2018-12-13T15:31:25.967Z,12.98
2018-12-13T15:33:53.913Z,13.35
2018-12-13T15:36:21.713Z,10.15
2018-12-13T15:38:49.518Z,10.85
2018-12-13T15:41:17.357Z,10.50
2018-12-13T15:43:45.239Z,17.55
2018-12-13T15:46:13.084Z,10.70
2018-12-13T15:48:42.155Z,16.65
2018-12-13T15:51:11.073Z,10.95
2018-12-13T15:53:39.834Z,10.30
2018-12-13T15:56:07.825Z,10.80
2018-12-13T15:58:36.171Z,11.73
2018-12-13T16:01:03.990Z,9.83
2018-12-13T16:03:31.925Z,10.13
2018-12-13T16:05:59.697Z,10.55
2018-12-13T16:08:27.561Z,14.38
2018-12-13T16:10:55.331Z,15.53
2018-12-13T16:13:23.189Z,10.90
2018-12-13T16:15:51.671Z,9.60
2018-12-13T16:18:19.860Z,10.75
2018-12-13T16:20:48.460Z,10.25
2018-12-13T16:23:16.639Z,6.95
2018-12-13T16:25:45.234Z,10.70
2018-12-13T16:28:13.356Z,9.48
2018-12-13T16:30:41.138Z,8.48
2018-12-13T16:33:09.730Z,11.20
2018-12-13T16:35:38.536Z,8.90
2018-12-13T16:38:06.834Z,11.85
2018-12-13T16:40:34.628Z,9.85
2018-12-13T16:43:02.647Z,9.00
2018-12-13T16:45:30.591Z,8.23
2018-12-13T16:47:58.456Z,11.53
2018-12-13T16:50:26.430Z,11.22
2018-12-13T16:52:54.569Z,10.55
2018-12-13T16:55:22.385Z,10.55
2018-12-13T16:57:50.924Z,13.22
2018-12-13T17:00:18.744Z,9.28
2018-12-13T17:02:46.610Z,9.43
2018-12-13T17:05:15.291Z,12.37
2018-12-13T17:07:43.232Z,10.90
2018-12-13T17:10:16.587Z,10.25
2018-12-13T17:12:40.920Z,13.15
2018-12-13T17:15:10.390Z,10.70
2018-12-13T17:17:38.487Z,12.03
2018-12-13T17:20:06.616Z,14.70
2018-12-13T17:22:34.462Z,8.65
2018-12-13T17:25:02.435Z,9.95
2018-12-13T17:27:30.275Z,9.58
2018-12-13T17:29:58.810Z,13.00
2018-12-13T17:32:26.847Z,11.68
2018-12-13T17:34:54.849Z,11.60
2018-12-13T17:37:22.632Z,12.40
2018-12-13T17:39:50.389Z,5.22
2018-12-13T17:42:21.999Z,11.38
2018-12-13T17:44:49.853Z,13.50
2018-12-13T17:47:17.772Z,11.33
2018-12-13T17:49:45.566Z,13.75
2018-12-13T17:52:13.396Z,11.10
2018-12-13T17:54:41.236Z,10.68
2018-12-13T17:57:09.589Z,9.40
2018-12-13T17:59:37.897Z,10.15
2018-12-13T18:02:05.726Z,13.98
2018-12-13T18:04:33.530Z,11.55
2018-12-13T18:07:01.301Z,9.00
2018-12-13T18:09:30.183Z,11.33
2018-12-13T18:11:57.976Z,12.35
2018-12-13T18:14:25.792Z,9.53
2018-12-13T18:16:53.846Z,14.18
2018-12-13T18:19:21.746Z,12.73
2018-12-13T18:21:49.575Z,15.00
2018-12-13T18:24:17.370Z,11.95
2018-12-13T18:26:45.484Z,14.23
2018-12-13T18:29:13.316Z,12.78
2018-12-13T18:31:41.729Z,12.58
2018-12-13T18:34:09.524Z,17.90
2018-12-13T18:36:41.462Z,15.50
2018-12-13T18:39:09.324Z,10.78
2018-12-13T18:41:41.043Z,12.70
2018-12-13T18:44:09.408Z,15.23
2018-12-13T18:46:37.545Z,12.10
2018-12-13T18:49:05.534Z,14.18
2018-12-13T18:51:33.409Z,12.80
2018-12-13T18:54:01.416Z,14.50
2018-12-13T18:56:29.940Z,13.35
2018-12-13T18:58:57.822Z,16.40
2018-12-13T19:01:26.214Z,11.38
2018-12-13T19:03:54.331Z,11.55
2018-12-13T19:06:22.101Z,9.63
2018-12-13T19:08:49.907Z,12.35
2018-12-13T19:11:17.912Z,16.62
2018-12-13T19:13:49.735Z,11.97
2018-12-13T19:16:17.607Z,11.78
2018-12-13T19:18:49.311Z,11.83
2018-12-13T19:21:17.136Z,12.65
2018-12-13T19:23:45.596Z,15.58
2018-12-13T19:26:13.576Z,16.02
2018-12-13T19:28:42.169Z,10.58
2018-12-13T19:31:09.967Z,12.95
2018-12-13T19:33:37.776Z,10.60
2018-12-13T19:36:05.902Z,8.13
2018-12-13T19:38:34.175Z,11.35
2018-12-13T19:41:02.297Z,15.78
2018-12-13T19:43:30.248Z,12.98
2018-12-13T19:45:58.109Z,8.30
2018-12-13T19:48:26.041Z,13.30
2018-12-13T19:50:54.786Z,16.40
2018-12-13T19:53:23.126Z,11.73
2018-12-13T19:55:50.950Z,13.95
2018-12-13T19:58:18.854Z,16.37
2018-12-13T20:00:46.983Z,14.28
2018-12-13T20:03:15.043Z,8.40
2018-12-13T20:05:43.461Z,15.00
2018-12-13T20:08:11.185Z,10.88
2018-12-13T20:10:39.372Z,15.05
2018-12-13T20:13:07.247Z,15.38
2018-12-13T20:15:35.184Z,13.00
2018-12-13T20:18:08.102Z,11.30
2018-12-13T20:20:36.064Z,11.43
2018-12-13T20:23:05.261Z,13.32
2018-12-13T20:25:33.477Z,11.00
2018-12-13T20:28:01.258Z,13.53
2018-12-13T20:30:29.005Z,13.78
2018-12-13T20:32:56.907Z,12.78
2018-12-13T20:35:25.911Z,20.27
2018-12-13T20:37:54.532Z,9.68
2018-12-13T20:40:24.338Z,14.28
2018-12-13T20:42:52.382Z,11.03
2018-12-13T20:45:20.158Z,14.07
2018-12-13T20:47:48.022Z,15.72
2018-12-13T20:50:16.007Z,15.32
2018-12-13T20:52:44.582Z,12.78
2018-12-13T20:55:12.447Z,13.68
2018-12-13T20:57:40.311Z,11.95
2018-12-13T21:00:10.453Z,14.10
2018-12-13T21:02:38.199Z,12.63
2018-12-13T21:05:06.142Z,17.15
2018-12-13T21:07:34.673Z,12.33
2018-12-13T21:10:06.477Z,16.15
2018-12-13T21:12:34.169Z,13.35
2018-12-13T21:15:01.974Z,13.32
2018-12-13T21:17:29.874Z,8.78
2018-12-13T21:19:57.553Z,16.17
2018-12-13T21:22:25.244Z,15.13
2018-12-13T21:24:52.976Z,15.08
2018-12-13T21:27:20.741Z,13.68
2018-12-13T21:29:48.531Z,16.87
2018-12-13T21:32:16.257Z,11.03
2018-12-13T21:34:44.528Z,12.45
2018-12-13T21:37:12.222Z,11.57
2018-12-13T21:39:40.360Z,12.90
2018-12-13T21:42:08.185Z,10.65
2018-12-13T21:44:37.089Z,7.62
2018-12-13T21:47:05.597Z,14.70
2018-12-13T21:49:33.546Z,16.23
2018-12-13T21:52:01.269Z,12.73
2018-12-13T21:54:29.644Z,12.55
2018-12-13T21:56:57.303Z,14.78
2018-12-13T21:59:24.995Z,13.53
2018-12-13T22:01:53.061Z,14.35
2018-12-13T22:04:22.184Z,14.98
2018-12-13T22:06:49.864Z,16.48
2018-12-13T22:09:17.618Z,13.62
2018-12-13T22:11:45.851Z,8.05
2018-12-13T22:14:13.619Z,15.65
2018-12-13T22:16:42.599Z,10.88
2018-12-13T22:19:10.872Z,17.37
2018-12-13T22:21:38.868Z,18.07
2018-12-13T22:24:06.580Z,13.70
2018-12-13T22:26:34.516Z,12.88
2018-12-13T22:29:02.853Z,12.90
2018-12-13T22:31:30.517Z,14.10
2018-12-13T22:33:58.892Z,12.20
2018-12-13T22:36:26.900Z,12.23
2018-12-13T22:38:54.526Z,16.20
2018-12-13T22:41:26.304Z,15.53
2018-12-13T22:43:52.334Z,11.08
2018-12-13T22:46:20.169Z,15.25
2018-12-13T22:48:47.834Z,16.67
2018-12-13T22:51:15.689Z,14.65
2018-12-13T22:53:43.511Z,13.48
2018-12-13T22:56:11.129Z,14.85
2018-12-13T22:58:38.782Z,8.80
2018-12-13T23:01:07.206Z,13.80
2018-12-13T23:03:35.191Z,12.23
2018-12-13T23:06:02.768Z,12.78
2018-12-13T23:08:30.395Z,13.53
2018-12-13T23:10:58.467Z,13.00
2018-12-13T23:13:26.216Z,13.55
2018-12-13T23:15:54.818Z,10.30
2018-12-13T23:18:22.826Z,13.35
2018-12-13T23:20:50.519Z,16.52
2018-12-13T23:23:18.250Z,12.53
2018-12-13T23:25:45.902Z,14.07
2018-12-13T23:28:13.685Z,12.58
2018-12-13T23:30:41.370Z,10.98
2018-12-13T23:33:09.192Z,12.68
2018-12-13T23:35:36.875Z,15.88
2018-12-13T23:38:04.620Z,12.90
2018-12-13T23:40:32.344Z,14.93
2018-12-13T23:43:00.157Z,11.88
2018-12-13T23:45:27.838Z,16.25
2018-12-13T23:47:55.664Z,14.55
2018-12-13T23:50:23.326Z,16.20
2018-12-13T23:52:51.047Z,17.35
2018-12-13T23:55:18.691Z,15.32
2018-12-13T23:57:46.398Z,14.10
